sensor_id;sensor_type;location;lat;lon;timestamp;P1;durP1;ratioP1;P2;durP2;ratioP2
11488;SDS011;5801;50.804;12.638;2022-09-25T00:02:05;10.27;;;6.03;;
11488;SDS011;5801;50.804;12.638;2022-09-25T00:04:31;7.95;;;6.15;;
11488;SDS011;5801;50.804;12.638;2022-09-25T00:06:57;9.82;;;6.43;;
11488;SDS011;5801;50.804;12.638;2022-09-25T00:09:23;8.73;;;5.53;;
11488;SDS011;5801;50.804;12.638;2022-09-25T00:11:49;7.38;;;5.97;;
11488;SDS011;5801;50.804;12.638;2022-09-25T00:14:15;7.22;;;5.38;;
11488;SDS011;5801;50.804;12.638;2022-09-25T00:16:40;7.93;;;5.43;;
11488;SDS011;5801;50.804;12.638;2022-09-25T00:19:06;7.50;;;5.47;;
11488;SDS011;5801;50.804;12.638;2022-09-25T00:21:50;8.45;;;5.72;;
11488;SDS011;5801;50.804;12.638;2022-09-25T00:24:16;6.70;;;5.70;;
11488;SDS011;5801;50.804;12.638;2022-09-25T00:26:42;7.30;;;5.22;;
11488;SDS011;5801;50.804;12.638;2022-09-25T00:29:10;8.93;;;5.85;;
11488;SDS011;5801;50.804;12.638;2022-09-25T00:31:39;7.18;;;5.82;;
11488;SDS011;5801;50.804;12.638;2022-09-25T00:34:05;9.20;;;5.57;;
11488;SDS011;5801;50.804;12.638;2022-09-25T00:36:31;10.27;;;5.80;;
11488;SDS011;5801;50.804;12.638;2022-09-25T00:38:58;6.65;;;5.55;;
11488;SDS011;5801;50.804;12.638;2022-09-25T00:41:24;8.27;;;5.80;;
11488;SDS011;5801;50.804;12.638;2022-09-25T00:43:52;8.63;;;6.75;;
11488;SDS011;5801;50.804;12.638;2022-09-25T00:46:26;7.57;;;5.68;;
11488;SDS011;5801;50.804;12.638;2022-09-25T00:49:15;6.97;;;5.20;;
11488;SDS011;5801;50.804;12.638;2022-09-25T00:51:45;9.02;;;5.30;;
11488;SDS011;5801;50.804;12.638;2022-09-25T00:54:19;7.88;;;5.22;;
11488;SDS011;5801;50.804;12.638;2022-09-25T00:56:51;5.88;;;4.65;;
11488;SDS011;5801;50.804;12.638;2022-09-25T00:59:21;10.63;;;5.15;;
11488;SDS011;5801;50.804;12.638;2022-09-25T01:01:51;6.90;;;4.95;;
11488;SDS011;5801;50.804;12.638;2022-09-25T01:04:19;8.18;;;5.85;;
11488;SDS011;5801;50.804;12.638;2022-09-25T01:06:46;13.38;;;5.68;;
11488;SDS011;5801;50.804;12.638;2022-09-25T01:09:13;6.00;;;4.78;;
11488;SDS011;5801;50.804;12.638;2022-09-25T01:11:39;6.95;;;5.13;;
11488;SDS011;5801;50.804;12.638;2022-09-25T01:14:05;6.80;;;5.32;;
11488;SDS011;5801;50.804;12.638;2022-09-25T01:16:42;9.75;;;5.85;;
11488;SDS011;5801;50.804;12.638;2022-09-25T01:25:08;5.78;;;4.80;;
11488;SDS011;5801;50.804;12.638;2022-09-25T01:30:23;14.85;;;5.60;;
11488;SDS011;5801;50.804;12.638;2022-09-25T01:32:51;9.07;;;5.38;;
11488;SDS011;5801;50.804;12.638;2022-09-25T01:41:09;8.10;;;5.05;;
11488;SDS011;5801;50.804;12.638;2022-09-25T01:44:05;7.05;;;5.05;;
11488;SDS011;5801;50.804;12.638;2022-09-25T01:46:39;6.93;;;4.65;;
11488;SDS011;5801;50.804;12.638;2022-09-25T01:49:12;9.07;;;5.68;;
11488;SDS011;5801;50.804;12.638;2022-09-25T01:51:45;5.63;;;4.95;;
11488;SDS011;5801;50.804;12.638;2022-09-25T01:54:16;12.65;;;5.25;;
11488;SDS011;5801;50.804;12.638;2022-09-25T01:59:31;10.63;;;5.75;;
11488;SDS011;5801;50.804;12.638;2022-09-25T02:02:11;9.43;;;5.00;;
11488;SDS011;5801;50.804;12.638;2022-09-25T02:04:46;5.65;;;5.10;;
11488;SDS011;5801;50.804;12.638;2022-09-25T02:07:17;6.30;;;5.30;;
11488;SDS011;5801;50.804;12.638;2022-09-25T02:09:51;8.35;;;5.50;;
11488;SDS011;5801;50.804;12.638;2022-09-25T02:12:27;6.55;;;5.50;;
11488;SDS011;5801;50.804;12.638;2022-09-25T02:15:07;7.65;;;5.40;;
11488;SDS011;5801;50.804;12.638;2022-09-25T02:18:00;8.88;;;5.50;;
11488;SDS011;5801;50.804;12.638;2022-09-25T02:20:53;9.20;;;5.57;;
11488;SDS011;5801;50.804;12.638;2022-09-25T02:26:30;7.50;;;5.32;;
11488;SDS011;5801;50.804;12.638;2022-09-25T02:28:57;8.20;;;5.75;;
11488;SDS011;5801;50.804;12.638;2022-09-25T02:31:32;6.95;;;5.95;;
11488;SDS011;5801;50.804;12.638;2022-09-25T02:34:00;8.48;;;5.53;;
11488;SDS011;5801;50.804;12.638;2022-09-25T02:36:27;8.10;;;5.97;;
11488;SDS011;5801;50.804;12.638;2022-09-25T02:38:53;7.43;;;5.10;;
11488;SDS011;5801;50.804;12.638;2022-09-25T02:41:30;9.43;;;6.03;;
11488;SDS011;5801;50.804;12.638;2022-09-25T02:49:49;6.85;;;5.15;;
11488;SDS011;5801;50.804;12.638;2022-09-25T02:52:02;7.68;;;5.03;;
11488;SDS011;5801;50.804;12.638;2022-09-25T02:59:56;10.10;;;5.50;;
11488;SDS011;5801;50.804;12.638;2022-09-25T03:02:25;7.60;;;5.20;;
11488;SDS011;5801;50.804;12.638;2022-09-25T03:04:53;8.77;;;5.60;;
11488;SDS011;5801;50.804;12.638;2022-09-25T03:07:20;7.28;;;5.05;;
11488;SDS011;5801;50.804;12.638;2022-09-25T03:09:46;7.13;;;5.43;;
11488;SDS011;5801;50.804;12.638;2022-09-25T03:12:14;6.57;;;5.00;;
11488;SDS011;5801;50.804;12.638;2022-09-25T03:14:40;8.70;;;5.00;;
11488;SDS011;5801;50.804;12.638;2022-09-25T03:17:06;7.88;;;5.18;;
11488;SDS011;5801;50.804;12.638;2022-09-25T03:19:34;16.48;;;5.10;;
11488;SDS011;5801;50.804;12.638;2022-09-25T03:22:00;7.25;;;4.95;;
11488;SDS011;5801;50.804;12.638;2022-09-25T03:24:26;12.80;;;6.05;;
11488;SDS011;5801;50.804;12.638;2022-09-25T03:26:52;8.30;;;5.30;;
11488;SDS011;5801;50.804;12.638;2022-09-25T03:29:18;7.95;;;5.32;;
11488;SDS011;5801;50.804;12.638;2022-09-25T03:31:45;10.20;;;5.90;;
11488;SDS011;5801;50.804;12.638;2022-09-25T03:34:11;7.35;;;5.47;;
11488;SDS011;5801;50.804;12.638;2022-09-25T03:36:38;8.13;;;5.57;;
11488;SDS011;5801;50.804;12.638;2022-09-25T03:39:05;6.03;;;5.15;;
11488;SDS011;5801;50.804;12.638;2022-09-25T03:41:31;6.15;;;5.00;;
11488;SDS011;5801;50.804;12.638;2022-09-25T03:43:58;8.38;;;5.85;;
11488;SDS011;5801;50.804;12.638;2022-09-25T03:46:25;6.05;;;4.60;;
11488;SDS011;5801;50.804;12.638;2022-09-25T03:48:53;7.32;;;4.72;;
11488;SDS011;5801;50.804;12.638;2022-09-25T03:51:20;5.20;;;4.57;;
11488;SDS011;5801;50.804;12.638;2022-09-25T03:53:46;9.27;;;5.47;;
11488;SDS011;5801;50.804;12.638;2022-09-25T03:56:14;8.07;;;5.82;;
11488;SDS011;5801;50.804;12.638;2022-09-25T03:58:41;8.50;;;6.07;;
11488;SDS011;5801;50.804;12.638;2022-09-25T04:01:08;7.88;;;5.43;;
11488;SDS011;5801;50.804;12.638;2022-09-25T04:03:34;7.25;;;5.30;;
11488;SDS011;5801;50.804;12.638;2022-09-25T04:06:01;6.82;;;5.03;;
11488;SDS011;5801;50.804;12.638;2022-09-25T04:08:30;9.07;;;6.00;;
11488;SDS011;5801;50.804;12.638;2022-09-25T04:10:57;7.65;;;5.63;;
11488;SDS011;5801;50.804;12.638;2022-09-25T04:13:24;8.15;;;5.88;;
11488;SDS011;5801;50.804;12.638;2022-09-25T04:15:54;7.68;;;5.97;;
11488;SDS011;5801;50.804;12.638;2022-09-25T04:18:20;7.47;;;5.38;;
11488;SDS011;5801;50.804;12.638;2022-09-25T04:20:47;6.47;;;5.38;;
11488;SDS011;5801;50.804;12.638;2022-09-25T04:23:12;7.97;;;5.68;;
11488;SDS011;5801;50.804;12.638;2022-09-25T04:25:38;10.80;;;6.32;;
11488;SDS011;5801;50.804;12.638;2022-09-25T04:28:04;10.07;;;6.43;;
11488;SDS011;5801;50.804;12.638;2022-09-25T04:30:31;7.47;;;5.43;;
11488;SDS011;5801;50.804;12.638;2022-09-25T04:32:57;8.85;;;6.03;;
11488;SDS011;5801;50.804;12.638;2022-09-25T04:35:43;8.13;;;5.85;;
11488;SDS011;5801;50.804;12.638;2022-09-25T04:38:08;7.82;;;6.28;;
11488;SDS011;5801;50.804;12.638;2022-09-25T04:40:34;8.18;;;6.35;;
11488;SDS011;5801;50.804;12.638;2022-09-25T04:43:01;8.98;;;5.68;;
11488;SDS011;5801;50.804;12.638;2022-09-25T04:45:28;7.90;;;5.57;;
11488;SDS011;5801;50.804;12.638;2022-09-25T04:47:55;7.68;;;5.90;;
11488;SDS011;5801;50.804;12.638;2022-09-25T04:50:23;7.47;;;5.95;;
11488;SDS011;5801;50.804;12.638;2022-09-25T04:52:49;6.63;;;5.70;;
11488;SDS011;5801;50.804;12.638;2022-09-25T04:55:18;11.90;;;5.88;;
11488;SDS011;5801;50.804;12.638;2022-09-25T04:57:55;7.65;;;5.43;;
11488;SDS011;5801;50.804;12.638;2022-09-25T05:00:24;11.38;;;6.38;;
11488;SDS011;5801;50.804;12.638;2022-09-25T05:02:51;7.53;;;5.95;;
11488;SDS011;5801;50.804;12.638;2022-09-25T05:05:17;9.05;;;6.28;;
11488;SDS011;5801;50.804;12.638;2022-09-25T05:07:50;7.78;;;5.60;;
11488;SDS011;5801;50.804;12.638;2022-09-25T05:10:17;7.35;;;5.70;;
11488;SDS011;5801;50.804;12.638;2022-09-25T05:12:44;7.72;;;5.53;;
11488;SDS011;5801;50.804;12.638;2022-09-25T05:15:11;7.75;;;5.50;;
11488;SDS011;5801;50.804;12.638;2022-09-25T05:17:37;9.77;;;6.20;;
11488;SDS011;5801;50.804;12.638;2022-09-25T05:20:02;8.02;;;6.22;;
11488;SDS011;5801;50.804;12.638;2022-09-25T05:22:28;7.53;;;5.63;;
11488;SDS011;5801;50.804;12.638;2022-09-25T05:24:54;14.95;;;6.95;;
11488;SDS011;5801;50.804;12.638;2022-09-25T05:27:20;7.63;;;5.50;;
11488;SDS011;5801;50.804;12.638;2022-09-25T05:29:47;9.57;;;6.22;;
11488;SDS011;5801;50.804;12.638;2022-09-25T05:32:13;7.63;;;5.88;;
11488;SDS011;5801;50.804;12.638;2022-09-25T05:34:39;6.53;;;5.40;;
11488;SDS011;5801;50.804;12.638;2022-09-25T05:37:05;9.98;;;6.05;;
11488;SDS011;5801;50.804;12.638;2022-09-25T05:39:31;8.25;;;5.45;;
11488;SDS011;5801;50.804;12.638;2022-09-25T05:41:56;7.70;;;5.32;;
11488;SDS011;5801;50.804;12.638;2022-09-25T05:44:22;9.98;;;6.35;;
11488;SDS011;5801;50.804;12.638;2022-09-25T05:46:48;6.82;;;5.43;;
11488;SDS011;5801;50.804;12.638;2022-09-25T05:49:14;10.85;;;6.32;;
11488;SDS011;5801;50.804;12.638;2022-09-25T05:51:40;8.70;;;6.20;;
11488;SDS011;5801;50.804;12.638;2022-09-25T05:54:05;7.18;;;5.50;;
11488;SDS011;5801;50.804;12.638;2022-09-25T05:56:31;9.20;;;6.53;;
11488;SDS011;5801;50.804;12.638;2022-09-25T05:58:57;7.68;;;5.78;;
11488;SDS011;5801;50.804;12.638;2022-09-25T06:01:23;9.13;;;6.55;;
11488;SDS011;5801;50.804;12.638;2022-09-25T06:03:49;18.58;;;7.40;;
11488;SDS011;5801;50.804;12.638;2022-09-25T06:06:15;11.23;;;6.78;;
11488;SDS011;5801;50.804;12.638;2022-09-25T06:08:41;9.65;;;7.80;;
11488;SDS011;5801;50.804;12.638;2022-09-25T06:11:06;12.90;;;7.18;;
11488;SDS011;5801;50.804;12.638;2022-09-25T06:13:32;7.90;;;6.28;;
11488;SDS011;5801;50.804;12.638;2022-09-25T06:16:00;7.88;;;6.15;;
11488;SDS011;5801;50.804;12.638;2022-09-25T06:18:27;6.25;;;4.82;;
11488;SDS011;5801;50.804;12.638;2022-09-25T06:20:58;8.65;;;5.78;;
11488;SDS011;5801;50.804;12.638;2022-09-25T06:23:25;8.27;;;5.80;;
11488;SDS011;5801;50.804;12.638;2022-09-25T06:25:51;8.20;;;5.57;;
11488;SDS011;5801;50.804;12.638;2022-09-25T06:28:17;7.13;;;6.20;;
11488;SDS011;5801;50.804;12.638;2022-09-25T06:30:43;11.65;;;6.47;;
11488;SDS011;5801;50.804;12.638;2022-09-25T06:33:09;9.35;;;6.43;;
11488;SDS011;5801;50.804;12.638;2022-09-25T06:35:44;10.25;;;6.25;;
11488;SDS011;5801;50.804;12.638;2022-09-25T06:38:11;8.98;;;6.93;;
11488;SDS011;5801;50.804;12.638;2022-09-25T06:40:37;7.78;;;5.97;;
11488;SDS011;5801;50.804;12.638;2022-09-25T06:43:04;10.27;;;7.47;;
11488;SDS011;5801;50.804;12.638;2022-09-25T06:45:31;9.30;;;6.53;;
11488;SDS011;5801;50.804;12.638;2022-09-25T06:48:01;9.93;;;6.90;;
11488;SDS011;5801;50.804;12.638;2022-09-25T06:50:31;8.63;;;6.45;;
11488;SDS011;5801;50.804;12.638;2022-09-25T06:53:02;10.95;;;6.47;;
11488;SDS011;5801;50.804;12.638;2022-09-25T06:55:28;9.13;;;7.70;;
11488;SDS011;5801;50.804;12.638;2022-09-25T06:57:54;10.13;;;6.63;;
11488;SDS011;5801;50.804;12.638;2022-09-25T07:00:19;11.60;;;9.02;;
11488;SDS011;5801;50.804;12.638;2022-09-25T07:02:45;10.45;;;7.95;;
11488;SDS011;5801;50.804;12.638;2022-09-25T07:05:30;7.93;;;6.25;;
11488;SDS011;5801;50.804;12.638;2022-09-25T07:07:57;6.88;;;5.57;;
11488;SDS011;5801;50.804;12.638;2022-09-25T07:10:22;7.57;;;5.65;;
11488;SDS011;5801;50.804;12.638;2022-09-25T07:12:47;7.25;;;5.78;;
11488;SDS011;5801;50.804;12.638;2022-09-25T07:15:13;7.45;;;5.57;;
11488;SDS011;5801;50.804;12.638;2022-09-25T07:17:42;6.47;;;5.55;;
11488;SDS011;5801;50.804;12.638;2022-09-25T07:20:08;9.25;;;6.78;;
11488;SDS011;5801;50.804;12.638;2022-09-25T07:22:36;9.45;;;5.78;;
11488;SDS011;5801;50.804;12.638;2022-09-25T07:25:02;11.65;;;6.15;;
11488;SDS011;5801;50.804;12.638;2022-09-25T07:27:28;8.05;;;5.28;;
11488;SDS011;5801;50.804;12.638;2022-09-25T07:29:54;8.82;;;5.95;;
11488;SDS011;5801;50.804;12.638;2022-09-25T07:32:20;7.00;;;5.57;;
11488;SDS011;5801;50.804;12.638;2022-09-25T07:34:46;8.35;;;6.80;;
11488;SDS011;5801;50.804;12.638;2022-09-25T07:37:15;10.43;;;6.05;;
11488;SDS011;5801;50.804;12.638;2022-09-25T07:42:59;7.90;;;5.97;;
11488;SDS011;5801;50.804;12.638;2022-09-25T07:45:25;8.23;;;6.53;;
11488;SDS011;5801;50.804;12.638;2022-09-25T07:47:55;9.57;;;6.45;;
11488;SDS011;5801;50.804;12.638;2022-09-25T07:50:21;12.98;;;6.65;;
11488;SDS011;5801;50.804;12.638;2022-09-25T07:52:47;8.98;;;6.22;;
11488;SDS011;5801;50.804;12.638;2022-09-25T07:55:12;9.15;;;6.72;;
11488;SDS011;5801;50.804;12.638;2022-09-25T07:57:38;8.15;;;6.47;;
11488;SDS011;5801;50.804;12.638;2022-09-25T08:00:06;9.73;;;6.35;;
11488;SDS011;5801;50.804;12.638;2022-09-25T08:02:32;10.50;;;6.85;;
11488;SDS011;5801;50.804;12.638;2022-09-25T08:04:59;10.82;;;6.50;;
11488;SDS011;5801;50.804;12.638;2022-09-25T08:07:26;14.48;;;6.50;;
11488;SDS011;5801;50.804;12.638;2022-09-25T08:09:52;9.77;;;7.25;;
11488;SDS011;5801;50.804;12.638;2022-09-25T08:12:18;10.48;;;7.78;;
11488;SDS011;5801;50.804;12.638;2022-09-25T08:14:44;11.18;;;7.47;;
11488;SDS011;5801;50.804;12.638;2022-09-25T08:17:10;13.82;;;7.32;;
11488;SDS011;5801;50.804;12.638;2022-09-25T08:19:35;8.63;;;7.47;;
11488;SDS011;5801;50.804;12.638;2022-09-25T08:22:01;9.13;;;7.30;;
11488;SDS011;5801;50.804;12.638;2022-09-25T08:24:26;11.30;;;8.13;;
11488;SDS011;5801;50.804;12.638;2022-09-25T08:26:52;12.90;;;7.57;;
11488;SDS011;5801;50.804;12.638;2022-09-25T08:29:18;8.68;;;7.38;;
11488;SDS011;5801;50.804;12.638;2022-09-25T08:31:43;10.77;;;7.97;;
11488;SDS011;5801;50.804;12.638;2022-09-25T08:34:09;13.65;;;8.40;;
11488;SDS011;5801;50.804;12.638;2022-09-25T08:36:35;11.88;;;9.57;;
11488;SDS011;5801;50.804;12.638;2022-09-25T08:39:01;10.98;;;8.55;;
11488;SDS011;5801;50.804;12.638;2022-09-25T08:41:28;16.60;;;9.25;;
11488;SDS011;5801;50.804;12.638;2022-09-25T08:43:58;11.32;;;8.95;;
11488;SDS011;5801;50.804;12.638;2022-09-25T08:46:39;11.43;;;8.98;;
11488;SDS011;5801;50.804;12.638;2022-09-25T08:49:49;11.18;;;8.38;;
11488;SDS011;5801;50.804;12.638;2022-09-25T08:52:26;12.60;;;8.80;;
11488;SDS011;5801;50.804;12.638;2022-09-25T08:54:52;11.10;;;8.27;;
11488;SDS011;5801;50.804;12.638;2022-09-25T08:57:32;13.85;;;8.30;;
11488;SDS011;5801;50.804;12.638;2022-09-25T09:00:05;13.75;;;8.35;;
11488;SDS011;5801;50.804;12.638;2022-09-25T09:02:39;12.15;;;8.90;;
11488;SDS011;5801;50.804;12.638;2022-09-25T09:05:16;8.40;;;7.38;;
11488;SDS011;5801;50.804;12.638;2022-09-25T09:07:47;11.85;;;9.32;;
11488;SDS011;5801;50.804;12.638;2022-09-25T09:12:48;13.23;;;10.10;;
11488;SDS011;5801;50.804;12.638;2022-09-25T09:17:53;10.65;;;8.70;;
11488;SDS011;5801;50.804;12.638;2022-09-25T09:20:22;13.55;;;9.80;;
11488;SDS011;5801;50.804;12.638;2022-09-25T09:23:01;12.20;;;9.88;;
11488;SDS011;5801;50.804;12.638;2022-09-25T09:25:44;15.48;;;10.10;;
11488;SDS011;5801;50.804;12.638;2022-09-25T09:37:02;10.57;;;8.90;;
11488;SDS011;5801;50.804;12.638;2022-09-25T09:39:57;13.02;;;9.82;;
11488;SDS011;5801;50.804;12.638;2022-09-25T09:42:41;12.90;;;10.10;;
11488;SDS011;5801;50.804;12.638;2022-09-25T09:45:21;12.90;;;9.18;;
11488;SDS011;5801;50.804;12.638;2022-09-25T09:48:00;12.00;;;9.35;;
11488;SDS011;5801;50.804;12.638;2022-09-25T09:53:20;11.57;;;7.68;;
11488;SDS011;5801;50.804;12.638;2022-09-25T09:55:48;12.55;;;8.80;;
11488;SDS011;5801;50.804;12.638;2022-09-25T09:58:22;12.05;;;9.20;;
11488;SDS011;5801;50.804;12.638;2022-09-25T10:01:09;11.55;;;9.05;;
11488;SDS011;5801;50.804;12.638;2022-09-25T10:03:37;10.68;;;8.73;;
11488;SDS011;5801;50.804;12.638;2022-09-25T10:06:08;9.50;;;7.90;;
11488;SDS011;5801;50.804;12.638;2022-09-25T10:08:37;11.10;;;9.15;;
11488;SDS011;5801;50.804;12.638;2022-09-25T10:11:04;9.95;;;7.70;;
11488;SDS011;5801;50.804;12.638;2022-09-25T10:13:38;11.68;;;7.57;;
11488;SDS011;5801;50.804;12.638;2022-09-25T10:16:05;11.60;;;8.82;;
11488;SDS011;5801;50.804;12.638;2022-09-25T10:18:44;10.48;;;7.97;;
11488;SDS011;5801;50.804;12.638;2022-09-25T10:21:38;11.52;;;8.60;;
11488;SDS011;5801;50.804;12.638;2022-09-25T10:24:07;9.73;;;8.32;;
11488;SDS011;5801;50.804;12.638;2022-09-25T10:26:33;12.70;;;8.93;;
11488;SDS011;5801;50.804;12.638;2022-09-25T10:29:01;11.05;;;8.40;;
11488;SDS011;5801;50.804;12.638;2022-09-25T10:31:50;8.30;;;7.43;;
11488;SDS011;5801;50.804;12.638;2022-09-25T10:34:22;9.50;;;7.55;;
11488;SDS011;5801;50.804;12.638;2022-09-25T10:36:48;12.23;;;6.93;;
11488;SDS011;5801;50.804;12.638;2022-09-25T10:39:27;10.50;;;7.75;;
11488;SDS011;5801;50.804;12.638;2022-09-25T10:41:56;8.80;;;7.35;;
11488;SDS011;5801;50.804;12.638;2022-09-25T10:44:30;8.88;;;7.13;;
11488;SDS011;5801;50.804;12.638;2022-09-25T10:50:10;8.43;;;7.03;;
11488;SDS011;5801;50.804;12.638;2022-09-25T10:52:52;11.70;;;8.88;;
11488;SDS011;5801;50.804;12.638;2022-09-25T11:03:25;9.88;;;8.20;;
11488;SDS011;5801;50.804;12.638;2022-09-25T11:06:03;9.90;;;7.82;;
11488;SDS011;5801;50.804;12.638;2022-09-25T11:08:33;10.18;;;8.02;;
11488;SDS011;5801;50.804;12.638;2022-09-25T11:11:03;13.60;;;9.40;;
11488;SDS011;5801;50.804;12.638;2022-09-25T11:13:34;10.98;;;7.88;;
11488;SDS011;5801;50.804;12.638;2022-09-25T11:16:10;10.60;;;8.52;;
11488;SDS011;5801;50.804;12.638;2022-09-25T11:18:40;8.27;;;6.97;;
11488;SDS011;5801;50.804;12.638;2022-09-25T11:21:16;10.88;;;8.02;;
11488;SDS011;5801;50.804;12.638;2022-09-25T11:26:15;12.07;;;9.10;;
11488;SDS011;5801;50.804;12.638;2022-09-25T11:28:49;11.32;;;8.43;;
11488;SDS011;5801;50.804;12.638;2022-09-25T11:31:26;11.65;;;9.32;;
11488;SDS011;5801;50.804;12.638;2022-09-25T11:34:03;10.95;;;8.68;;
11488;SDS011;5801;50.804;12.638;2022-09-25T11:36:43;9.73;;;7.93;;
11488;SDS011;5801;50.804;12.638;2022-09-25T11:39:30;11.25;;;9.50;;
11488;SDS011;5801;50.804;12.638;2022-09-25T11:42:24;11.93;;;8.00;;
11488;SDS011;5801;50.804;12.638;2022-09-25T11:45:03;11.05;;;8.57;;
11488;SDS011;5801;50.804;12.638;2022-09-25T11:50:26;12.25;;;8.15;;
11488;SDS011;5801;50.804;12.638;2022-09-25T11:53:15;10.55;;;7.20;;
11488;SDS011;5801;50.804;12.638;2022-09-25T11:55:51;10.43;;;6.43;;
11488;SDS011;5801;50.804;12.638;2022-09-25T11:58:44;7.18;;;6.03;;
11488;SDS011;5801;50.804;12.638;2022-09-25T12:01:31;9.85;;;7.72;;
11488;SDS011;5801;50.804;12.638;2022-09-25T12:04:09;9.52;;;6.13;;
11488;SDS011;5801;50.804;12.638;2022-09-25T12:09:47;8.93;;;6.80;;
11488;SDS011;5801;50.804;12.638;2022-09-25T12:15:25;10.20;;;8.02;;
11488;SDS011;5801;50.804;12.638;2022-09-25T12:20:57;8.95;;;6.95;;
11488;SDS011;5801;50.804;12.638;2022-09-25T12:24:00;9.30;;;7.75;;
11488;SDS011;5801;50.804;12.638;2022-09-25T12:32:44;9.73;;;6.78;;
11488;SDS011;5801;50.804;12.638;2022-09-25T12:38:08;8.65;;;6.80;;
11488;SDS011;5801;50.804;12.638;2022-09-25T12:41:03;9.55;;;7.43;;
11488;SDS011;5801;50.804;12.638;2022-09-25T12:43:32;9.57;;;6.00;;
11488;SDS011;5801;50.804;12.638;2022-09-25T12:46:21;8.90;;;6.00;;
11488;SDS011;5801;50.804;12.638;2022-09-25T12:49:10;7.85;;;6.28;;
11488;SDS011;5801;50.804;12.638;2022-09-25T12:51:57;10.68;;;6.75;;
11488;SDS011;5801;50.804;12.638;2022-09-25T12:54:29;10.35;;;5.78;;
11488;SDS011;5801;50.804;12.638;2022-09-25T13:00:00;6.35;;;5.30;;
11488;SDS011;5801;50.804;12.638;2022-09-25T13:02:52;6.95;;;5.20;;
11488;SDS011;5801;50.804;12.638;2022-09-25T13:05:52;6.30;;;4.80;;
11488;SDS011;5801;50.804;12.638;2022-09-25T13:08:35;7.05;;;5.63;;
11488;SDS011;5801;50.804;12.638;2022-09-25T13:11:13;7.10;;;5.20;;
11488;SDS011;5801;50.804;12.638;2022-09-25T13:13:49;6.95;;;5.60;;
11488;SDS011;5801;50.804;12.638;2022-09-25T13:16:17;6.43;;;4.43;;
11488;SDS011;5801;50.804;12.638;2022-09-25T13:18:47;6.50;;;5.10;;
11488;SDS011;5801;50.804;12.638;2022-09-25T13:21:34;6.55;;;4.97;;
11488;SDS011;5801;50.804;12.638;2022-09-25T13:24:02;8.57;;;5.43;;
11488;SDS011;5801;50.804;12.638;2022-09-25T13:26:32;8.30;;;6.30;;
11488;SDS011;5801;50.804;12.638;2022-09-25T13:29:22;12.38;;;6.55;;
11488;SDS011;5801;50.804;12.638;2022-09-25T13:32:00;7.53;;;5.25;;
11488;SDS011;5801;50.804;12.638;2022-09-25T13:34:33;9.10;;;7.00;;
11488;SDS011;5801;50.804;12.638;2022-09-25T13:37:03;8.75;;;6.93;;
11488;SDS011;5801;50.804;12.638;2022-09-25T13:39:31;8.00;;;5.82;;
11488;SDS011;5801;50.804;12.638;2022-09-25T13:44:57;7.72;;;6.05;;
11488;SDS011;5801;50.804;12.638;2022-09-25T13:55:42;17.67;;;9.40;;
11488;SDS011;5801;50.804;12.638;2022-09-25T13:58:28;51.97;;;24.50;;
11488;SDS011;5801;50.804;12.638;2022-09-25T14:00:58;15.15;;;9.80;;
11488;SDS011;5801;50.804;12.638;2022-09-25T14:03:44;12.68;;;7.25;;
11488;SDS011;5801;50.804;12.638;2022-09-25T14:06:19;10.73;;;7.93;;
11488;SDS011;5801;50.804;12.638;2022-09-25T14:08:47;9.38;;;7.72;;
11488;SDS011;5801;50.804;12.638;2022-09-25T14:11:16;14.10;;;7.88;;
11488;SDS011;5801;50.804;12.638;2022-09-25T14:13:49;9.13;;;6.82;;
11488;SDS011;5801;50.804;12.638;2022-09-25T14:18:51;9.68;;;7.47;;
11488;SDS011;5801;50.804;12.638;2022-09-25T14:21:18;9.95;;;6.65;;
11488;SDS011;5801;50.804;12.638;2022-09-25T14:23:52;10.88;;;7.70;;
11488;SDS011;5801;50.804;12.638;2022-09-25T14:26:20;10.85;;;7.53;;
11488;SDS011;5801;50.804;12.638;2022-09-25T14:28:51;9.38;;;6.72;;
11488;SDS011;5801;50.804;12.638;2022-09-25T14:36:46;16.05;;;7.00;;
11488;SDS011;5801;50.804;12.638;2022-09-25T14:39:36;8.23;;;6.47;;
11488;SDS011;5801;50.804;12.638;2022-09-25T14:42:15;9.80;;;6.85;;
11488;SDS011;5801;50.804;12.638;2022-09-25T14:45:06;11.25;;;6.28;;
11488;SDS011;5801;50.804;12.638;2022-09-25T14:47:55;9.10;;;6.75;;
11488;SDS011;5801;50.804;12.638;2022-09-25T14:50:31;9.45;;;6.90;;
11488;SDS011;5801;50.804;12.638;2022-09-25T14:53:01;9.23;;;6.93;;
11488;SDS011;5801;50.804;12.638;2022-09-25T14:55:35;7.57;;;6.13;;
11488;SDS011;5801;50.804;12.638;2022-09-25T14:58:05;6.95;;;6.05;;
11488;SDS011;5801;50.804;12.638;2022-09-25T15:00:33;8.52;;;6.40;;
11488;SDS011;5801;50.804;12.638;2022-09-25T15:02:59;7.88;;;5.47;;
11488;SDS011;5801;50.804;12.638;2022-09-25T15:05:28;8.52;;;5.78;;
11488;SDS011;5801;50.804;12.638;2022-09-25T15:07:56;6.15;;;5.20;;
11488;SDS011;5801;50.804;12.638;2022-09-25T15:12:48;6.10;;;5.13;;
11488;SDS011;5801;50.804;12.638;2022-09-25T15:15:15;7.00;;;4.80;;
11488;SDS011;5801;50.804;12.638;2022-09-25T15:17:49;6.53;;;4.57;;
11488;SDS011;5801;50.804;12.638;2022-09-25T15:20:24;4.20;;;3.20;;
11488;SDS011;5801;50.804;12.638;2022-09-25T15:22:53;4.35;;;3.30;;
11488;SDS011;5801;50.804;12.638;2022-09-25T15:25:22;3.58;;;2.85;;
11488;SDS011;5801;50.804;12.638;2022-09-25T15:27:51;2.58;;;2.20;;
11488;SDS011;5801;50.804;12.638;2022-09-25T15:30:17;3.33;;;2.53;;
11488;SDS011;5801;50.804;12.638;2022-09-25T15:32:45;2.55;;;2.35;;
11488;SDS011;5801;50.804;12.638;2022-09-25T15:35:17;3.08;;;2.38;;
11488;SDS011;5801;50.804;12.638;2022-09-25T15:37:47;2.50;;;2.30;;
11488;SDS011;5801;50.804;12.638;2022-09-25T15:40:18;6.30;;;2.10;;
11488;SDS011;5801;50.804;12.638;2022-09-25T15:42:47;3.17;;;2.10;;
11488;SDS011;5801;50.804;12.638;2022-09-25T15:48:07;1.98;;;1.65;;
11488;SDS011;5801;50.804;12.638;2022-09-25T15:50:41;2.95;;;1.80;;
11488;SDS011;5801;50.804;12.638;2022-09-25T15:53:13;2.03;;;1.55;;
11488;SDS011;5801;50.804;12.638;2022-09-25T15:55:47;2.13;;;1.60;;
11488;SDS011;5801;50.804;12.638;2022-09-25T15:58:14;2.53;;;1.92;;
11488;SDS011;5801;50.804;12.638;2022-09-25T16:00:52;1.73;;;1.60;;
11488;SDS011;5801;50.804;12.638;2022-09-25T16:03:43;1.90;;;1.52;;
11488;SDS011;5801;50.804;12.638;2022-09-25T16:06:36;2.42;;;1.52;;
11488;SDS011;5801;50.804;12.638;2022-09-25T16:09:07;2.28;;;1.55;;
11488;SDS011;5801;50.804;12.638;2022-09-25T16:11:34;2.95;;;1.40;;
11488;SDS011;5801;50.804;12.638;2022-09-25T16:14:15;1.40;;;1.20;;
11488;SDS011;5801;50.804;12.638;2022-09-25T16:16:46;0.80;;;0.80;;
11488;SDS011;5801;50.804;12.638;2022-09-25T16:19:19;1.17;;;1.08;;
11488;SDS011;5801;50.804;12.638;2022-09-25T16:21:51;3.42;;;1.40;;
11488;SDS011;5801;50.804;12.638;2022-09-25T16:24:19;3.28;;;1.50;;
11488;SDS011;5801;50.804;12.638;2022-09-25T16:26:51;1.65;;;1.30;;
11488;SDS011;5801;50.804;12.638;2022-09-25T16:29:37;3.30;;;2.80;;
11488;SDS011;5801;50.804;12.638;2022-09-25T16:32:04;3.95;;;3.20;;
11488;SDS011;5801;50.804;12.638;2022-09-25T16:34:33;2.35;;;1.77;;
11488;SDS011;5801;50.804;12.638;2022-09-25T16:37:02;3.60;;;2.55;;
11488;SDS011;5801;50.804;12.638;2022-09-25T16:39:34;4.60;;;1.70;;
11488;SDS011;5801;50.804;12.638;2022-09-25T16:42:34;3.65;;;1.48;;
11488;SDS011;5801;50.804;12.638;2022-09-25T16:45:13;1.73;;;1.40;;
11488;SDS011;5801;50.804;12.638;2022-09-25T16:47:41;2.80;;;1.75;;
11488;SDS011;5801;50.804;12.638;2022-09-25T16:50:08;3.42;;;2.08;;
11488;SDS011;5801;50.804;12.638;2022-09-25T16:52:34;3.08;;;1.83;;
11488;SDS011;5801;50.804;12.638;2022-09-25T16:55:02;1.98;;;1.75;;
11488;SDS011;5801;50.804;12.638;2022-09-25T16:57:34;2.95;;;1.98;;
11488;SDS011;5801;50.804;12.638;2022-09-25T17:00:00;3.22;;;2.13;;
11488;SDS011;5801;50.804;12.638;2022-09-25T17:05:00;4.07;;;1.88;;